createdAt,value
2023-04-18T00:02:34.245Z,102273.13
2023-04-18T00:06:00.267Z,102272.16
2023-04-18T00:09:25.036Z,102279.88
2023-04-18T00:12:49.976Z,102282.38
2023-04-18T00:17:11.743Z,102271.09
2023-04-18T00:20:39.876Z,102274.41
2023-04-18T00:24:05.017Z,102276.97
2023-04-18T00:27:29.198Z,102273.47
2023-04-18T00:30:53.021Z,102288.88
2023-04-18T00:34:17.375Z,102280.16
2023-04-18T00:37:41.580Z,102290.47
2023-04-18T00:41:07.083Z,102283.47
2023-04-18T00:44:31.866Z,102287.78
2023-04-18T00:47:56.544Z,102274.69
2023-04-18T00:51:22.320Z,102283.31
2023-04-18T00:54:47.114Z,102282.34
2023-04-18T00:58:13.516Z,102275.38
2023-04-18T01:01:37.706Z,102284.72
2023-04-18T01:05:01.873Z,102281.25
2023-04-18T01:08:25.818Z,102263.78
2023-04-18T01:11:52.867Z,102272.47
2023-04-18T01:15:18.999Z,102275.78
2023-04-18T01:18:44.011Z,102275.69
2023-04-18T01:22:22.591Z,102279.00
2023-04-18T01:25:49.791Z,102292.72
2023-04-18T01:29:14.095Z,102289.25
2023-04-18T01:32:38.853Z,102293.50
2023-04-18T01:36:03.696Z,102292.56
2023-04-18T01:39:27.780Z,102286.44
2023-04-18T01:42:55.760Z,102289.88
2023-04-18T01:46:19.899Z,102284.63
2023-04-18T01:49:48.750Z,102245.53
2023-04-18T01:53:12.621Z,102281.91
2023-04-18T01:56:36.316Z,102279.25
2023-04-18T02:00:02.127Z,102261.88
2023-04-18T02:03:26.952Z,102267.88
2023-04-18T02:06:53.979Z,102268.69
2023-04-18T02:10:17.893Z,102275.56
2023-04-18T02:13:41.041Z,102283.25
2023-04-18T02:17:07.169Z,102282.31
2023-04-18T02:20:32.073Z,102277.03
2023-04-18T02:23:56.276Z,102278.75
2023-04-18T02:27:21.680Z,102273.50
2023-04-18T02:30:46.189Z,102270.75
2023-04-18T02:34:12.357Z,102272.53
2023-04-18T02:37:37.214Z,102275.91
2023-04-18T02:41:00.895Z,102267.16
2023-04-18T02:44:24.068Z,102272.25
2023-04-18T02:47:55.514Z,102285.19
2023-04-18T02:51:23.088Z,102274.72
2023-04-18T02:54:51.632Z,102284.28
2023-04-18T02:58:15.866Z,102281.66
2023-04-18T03:01:39.300Z,102275.56
2023-04-18T03:05:05.523Z,102278.09
2023-04-18T03:08:31.296Z,102263.44
2023-04-18T03:11:58.054Z,102275.47
2023-04-18T03:15:22.661Z,102268.59
2023-04-18T03:18:50.915Z,102272.91
2023-04-18T03:22:17.298Z,102279.75
2023-04-18T03:25:43.649Z,102272.09
2023-04-18T03:29:08.211Z,102275.47
2023-04-18T03:32:34.885Z,102275.56
2023-04-18T03:36:00.079Z,102273.84
2023-04-18T03:39:25.338Z,102274.63
2023-04-18T03:42:52.328Z,102287.72
2023-04-18T03:46:17.148Z,102281.75
2023-04-18T03:49:41.834Z,102261.13
2023-04-18T03:53:06.953Z,102276.00
2023-04-18T03:56:30.739Z,102263.06
2023-04-18T04:00:00.149Z,102270.25
2023-04-18T04:03:24.513Z,102264.31
2023-04-18T04:06:52.101Z,102275.72
2023-04-18T04:10:16.095Z,102278.41
2023-04-18T04:13:42.170Z,102284.56
2023-04-18T04:17:06.924Z,102285.53
2023-04-18T04:20:30.094Z,102285.63
2023-04-18T04:23:53.868Z,102280.59
2023-04-18T04:27:19.487Z,102285.13
2023-04-18T04:30:44.398Z,102275.00
2023-04-18T04:34:11.271Z,102277.72
2023-04-18T04:37:35.971Z,102278.03
2023-04-18T04:41:01.060Z,102275.69
2023-04-18T04:44:27.731Z,102276.81
2023-04-18T04:47:51.949Z,102271.84
2023-04-18T04:51:18.251Z,102272.91
2023-04-18T04:54:43.438Z,102273.06
2023-04-18T04:58:07.426Z,102272.41
2023-04-18T05:01:31.947Z,102269.13
2023-04-18T05:04:57.946Z,102268.34
2023-04-18T05:08:29.416Z,102267.59
2023-04-18T05:11:55.021Z,102264.22
2023-04-18T05:15:22.698Z,102266.03
2023-04-18T05:18:48.315Z,102261.72
2023-04-18T05:22:18.202Z,102259.13
2023-04-18T05:25:49.402Z,102259.09
2023-04-18T05:29:14.410Z,102263.31
2023-04-18T05:32:41.399Z,102259.75
2023-04-18T05:36:07.951Z,102250.91
2023-04-18T05:39:40.262Z,102261.13
2023-04-18T05:43:09.911Z,102254.09
2023-04-18T05:46:36.502Z,102254.06
2023-04-18T05:50:02.271Z,102247.91
2023-04-18T05:53:29.350Z,102251.31
2023-04-18T05:56:54.150Z,102256.44
2023-04-18T06:00:23.655Z,102245.16
2023-04-18T06:03:55.657Z,102243.28
2023-04-18T06:07:22.147Z,102243.19
2023-04-18T06:10:46.252Z,102241.34
2023-04-18T06:14:16.566Z,102236.06
2023-04-18T06:17:42.995Z,102241.16
2023-04-18T06:21:06.097Z,102238.47
2023-04-18T06:24:31.151Z,102238.34
2023-04-18T06:27:59.688Z,102229.63
2023-04-18T06:31:23.682Z,102233.00
2023-04-18T06:34:48.781Z,102231.13
2023-04-18T06:38:17.168Z,102231.72
2023-04-18T06:41:40.659Z,102234.91
2023-04-18T06:45:06.668Z,102227.44
2023-04-18T06:48:29.846Z,102208.84
2023-04-18T06:51:54.138Z,102221.44
2023-04-18T06:55:17.715Z,102231.25
2023-04-18T06:58:41.071Z,102234.13
2023-04-18T07:02:04.195Z,102223.81
2023-04-18T07:05:28.023Z,102223.34
2023-04-18T07:08:54.793Z,102232.53
2023-04-18T07:12:19.262Z,102225.09
2023-04-18T07:15:42.994Z,102210.03
2023-04-18T07:19:08.147Z,102230.31
2023-04-18T07:22:38.532Z,102219.38
2023-04-18T07:26:12.406Z,102205.75
2023-04-18T07:29:36.808Z,102211.56
2023-04-18T07:33:00.817Z,102208.03
2023-04-18T07:36:25.270Z,102207.03
2023-04-18T07:39:49.362Z,102208.06
2023-04-18T07:43:16.213Z,102204.91
2023-04-18T07:46:40.972Z,102201.84
2023-04-18T07:50:05.450Z,102203.19
2023-04-18T07:53:29.984Z,102208.97
2023-04-18T07:56:56.446Z,102205.81
2023-04-18T08:00:23.405Z,102202.31
2023-04-18T08:03:48.952Z,102200.13
2023-04-18T08:07:13.421Z,102204.81
2023-04-18T08:10:39.170Z,102199.06
2023-04-18T08:14:05.534Z,102198.81
2023-04-18T08:17:34.013Z,102214.22
2023-04-18T08:20:58.525Z,102195.00
2023-04-18T08:24:22.977Z,102198.31
2023-04-18T08:27:47.258Z,102172.69
2023-04-18T08:31:16.439Z,102195.88
2023-04-18T08:34:44.995Z,102192.13
2023-04-18T08:38:10.984Z,102199.66
2023-04-18T08:41:41.562Z,102186.28
2023-04-18T08:45:07.015Z,102185.06
2023-04-18T08:48:30.718Z,102178.34
2023-04-18T08:52:02.537Z,102176.13
2023-04-18T08:55:27.191Z,102179.09
2023-04-18T08:58:54.245Z,102178.59
2023-04-18T09:02:20.532Z,102182.69
2023-04-18T09:05:47.433Z,102185.03
2023-04-18T09:09:14.271Z,102173.22
2023-04-18T09:12:50.979Z,102181.50
2023-04-18T09:16:15.307Z,102181.38
2023-04-18T09:19:47.555Z,102175.28
2023-04-18T09:23:15.310Z,102169.34
2023-04-18T09:26:41.554Z,102157.00
2023-04-18T09:30:05.586Z,102160.25
2023-04-18T09:33:33.712Z,102161.94
2023-04-18T09:37:14.353Z,102171.44
2023-04-18T09:40:38.680Z,102151.13
2023-04-18T09:44:18.397Z,102169.28
2023-04-18T09:47:42.984Z,102161.44
2023-04-18T09:51:10.352Z,102166.38
2023-04-18T09:54:40.313Z,102159.81
2023-04-18T09:58:09.731Z,102154.06
2023-04-18T10:01:36.954Z,102154.69
2023-04-18T10:05:03.187Z,102151.78
2023-04-18T10:08:27.509Z,102158.63
2023-04-18T10:11:53.328Z,102152.91
2023-04-18T10:15:18.247Z,102150.41
2023-04-18T10:18:46.345Z,102148.97
2023-04-18T10:22:11.027Z,102154.94
2023-04-18T10:25:55.029Z,102151.22
2023-04-18T10:29:22.754Z,102152.16
2023-04-18T10:32:47.811Z,102148.13
2023-04-18T10:36:22.028Z,102160.63
2023-04-18T10:39:58.971Z,102146.97
2023-04-18T10:43:22.444Z,102154.00
2023-04-18T10:47:02.376Z,102138.13
2023-04-18T10:50:27.310Z,102143.69
2023-04-18T10:53:58.878Z,102141.19
2023-04-18T10:57:24.044Z,102147.75
2023-04-18T11:00:50.346Z,102137.09
2023-04-18T11:04:16.814Z,102133.16
2023-04-18T11:07:45.898Z,102132.91
2023-04-18T11:11:12.217Z,102139.22
2023-04-18T11:14:55.296Z,102132.19
2023-04-18T11:18:20.042Z,102130.84
2023-04-18T11:21:45.154Z,102136.59
2023-04-18T11:25:10.463Z,102132.78
2023-04-18T11:28:35.990Z,102127.47
2023-04-18T11:32:03.527Z,102122.75
2023-04-18T11:35:27.961Z,102107.06
2023-04-18T11:38:52.241Z,102119.50
2023-04-18T11:42:17.241Z,102109.06
2023-04-18T11:45:53.326Z,102115.34
2023-04-18T11:49:31.021Z,102111.72
2023-04-18T11:52:57.052Z,102117.13
2023-04-18T11:56:20.225Z,102108.19
2023-04-18T11:59:51.053Z,102106.19
2023-04-18T12:03:20.302Z,102110.13
2023-04-18T12:06:51.007Z,102101.19
2023-04-18T12:10:28.548Z,102100.44
2023-04-18T12:13:52.023Z,102110.97
2023-04-18T12:17:16.485Z,102106.78
2023-04-18T12:20:46.544Z,102104.31
2023-04-18T12:24:16.790Z,102103.09
2023-04-18T12:28:00.488Z,102100.69
2023-04-18T12:31:24.285Z,102111.63
2023-04-18T12:34:48.061Z,102105.59
2023-04-18T12:38:13.347Z,102114.69
2023-04-18T12:41:37.949Z,102107.25
2023-04-18T12:45:08.185Z,102098.63
2023-04-18T12:48:34.882Z,102102.09
2023-04-18T12:51:59.220Z,102104.75
2023-04-18T12:55:25.347Z,102095.47
2023-04-18T12:58:50.065Z,102096.66
2023-04-18T13:02:15.038Z,102095.16
2023-04-18T13:05:39.416Z,102096.25
2023-04-18T13:09:04.367Z,102108.19
2023-04-18T13:12:31.319Z,102101.34
2023-04-18T13:15:56.380Z,102100.19
2023-04-18T13:19:20.203Z,102099.34
2023-04-18T13:22:45.429Z,102105.31
2023-04-18T13:26:10.329Z,102097.06
2023-04-18T13:29:37.183Z,102112.75
2023-04-18T13:33:03.072Z,102096.53
2023-04-18T13:36:27.398Z,102109.25
2023-04-18T13:39:51.486Z,102113.66
2023-04-18T13:43:16.182Z,102121.75
2023-04-18T13:46:42.097Z,102102.31
2023-04-18T13:50:09.519Z,102111.28
2023-04-18T13:53:33.950Z,102106.59
2023-04-18T13:56:59.297Z,102117.44
2023-04-18T14:00:23.479Z,102118.59
2023-04-18T14:03:48.509Z,102129.72
2023-04-18T14:07:12.370Z,102110.69
2023-04-18T14:10:35.736Z,102107.47
2023-04-18T14:14:04.232Z,102120.63
2023-04-18T14:17:29.125Z,102121.38
2023-04-18T14:20:55.934Z,102117.22
2023-04-18T14:24:19.664Z,102119.41
2023-04-18T14:27:43.857Z,102110.88
2023-04-18T14:31:08.302Z,102127.47
2023-04-18T14:34:34.407Z,102131.53
2023-04-18T14:38:02.259Z,102133.53
2023-04-18T14:41:26.543Z,102138.56
2023-04-18T14:44:50.100Z,102145.00
2023-04-18T14:48:14.181Z,102127.78
2023-04-18T14:51:38.100Z,102137.41
2023-04-18T14:55:03.313Z,102149.00
2023-04-18T14:58:27.406Z,102145.63
2023-04-18T15:01:51.947Z,102140.72
2023-04-18T15:05:15.809Z,102147.66
2023-04-18T15:08:40.255Z,102155.78
2023-04-18T15:12:06.292Z,102148.94
2023-04-18T15:15:31.462Z,102148.47
2023-04-18T15:18:56.300Z,102170.75
2023-04-18T15:22:21.412Z,102136.94
2023-04-18T15:25:47.349Z,102152.50
2023-04-18T15:29:13.045Z,102162.19
2023-04-18T15:32:37.775Z,102174.59
2023-04-18T15:36:02.164Z,102169.50
2023-04-18T15:39:26.246Z,102165.22
2023-04-18T15:42:52.089Z,102165.50
2023-04-18T15:46:17.417Z,102165.44
2023-04-18T15:49:41.075Z,102174.91
2023-04-18T15:53:06.118Z,102157.56
2023-04-18T15:56:33.056Z,102168.75
2023-04-18T15:59:59.264Z,102160.19
2023-04-18T16:03:26.217Z,102163.66
2023-04-18T16:06:50.305Z,102167.06
2023-04-18T16:10:15.966Z,102168.78
2023-04-18T16:13:40.732Z,102160.84
2023-04-18T16:17:05.848Z,102164.88
2023-04-18T16:20:31.362Z,102158.16
2023-04-18T16:23:55.650Z,102161.00
2023-04-18T16:27:20.126Z,102158.41
2023-04-18T16:30:44.888Z,102155.16
2023-04-18T16:34:09.553Z,102174.50
2023-04-18T16:37:36.146Z,102166.81
2023-04-18T16:41:02.348Z,102162.53
2023-04-18T16:44:25.805Z,102172.84
2023-04-18T16:47:49.319Z,102176.13
2023-04-18T16:51:14.175Z,102176.97
2023-04-18T16:54:40.018Z,102187.00
2023-04-18T16:58:04.401Z,102178.59
2023-04-18T17:01:28.520Z,102192.72
2023-04-18T17:04:52.912Z,102194.69
2023-04-18T17:08:16.255Z,102187.94
2023-04-18T17:11:41.804Z,102196.66
2023-04-18T17:15:06.366Z,102159.66
2023-04-18T17:18:31.681Z,102199.75
2023-04-18T17:21:55.264Z,102187.22
2023-04-18T17:25:21.604Z,102201.28
2023-04-18T17:28:47.428Z,102187.84
2023-04-18T17:32:11.594Z,102204.63
2023-04-18T17:35:35.801Z,102203.94
2023-04-18T17:39:06.585Z,102205.78
2023-04-18T17:42:30.033Z,102214.78
2023-04-18T17:45:56.065Z,102225.44
2023-04-18T17:49:19.926Z,102217.78
2023-04-18T17:52:44.151Z,102219.69
2023-04-18T17:56:09.022Z,102224.22
2023-04-18T17:59:38.435Z,102190.69
2023-04-18T18:03:04.464Z,102217.63
2023-04-18T18:06:32.152Z,102238.56
2023-04-18T18:09:56.429Z,102223.88
2023-04-18T18:13:20.923Z,102204.13
2023-04-18T18:16:45.458Z,102229.28
2023-04-18T18:20:14.156Z,102234.69
2023-04-18T18:23:39.156Z,102224.38
2023-04-18T18:27:06.995Z,102227.88
2023-04-18T18:30:31.602Z,102224.56
2023-04-18T18:33:54.968Z,102222.97
2023-04-18T18:37:22.424Z,102237.72
2023-04-18T18:40:46.722Z,102236.06
2023-04-18T18:44:12.350Z,102229.25
2023-04-18T18:47:39.671Z,102238.03
2023-04-18T18:51:05.355Z,102225.94
2023-04-18T18:54:32.024Z,102234.69
2023-04-18T18:57:56.163Z,102232.16
2023-04-18T19:01:23.149Z,102223.53
2023-04-18T19:04:47.899Z,102233.97
2023-04-18T19:08:11.172Z,102230.59
2023-04-18T19:11:38.184Z,102236.69
2023-04-18T19:15:01.970Z,102197.84
2023-04-18T19:18:25.169Z,102225.50
2023-04-18T19:21:51.324Z,102235.06
2023-04-18T19:25:15.415Z,102229.94
2023-04-18T19:28:40.927Z,102236.03
2023-04-18T19:32:05.119Z,102229.97
2023-04-18T19:35:30.214Z,102225.69
2023-04-18T19:38:55.037Z,102238.72
2023-04-18T19:42:17.779Z,102246.53
2023-04-18T19:45:43.377Z,102222.28
2023-04-18T19:49:07.409Z,102210.25
2023-04-18T19:52:31.374Z,102238.78
2023-04-18T19:55:56.058Z,102243.16
2023-04-18T19:59:19.464Z,102244.03
2023-04-18T20:02:45.306Z,102239.75
2023-04-18T20:06:09.373Z,102247.56
2023-04-18T20:10:42.186Z,102253.66
2023-04-18T20:14:05.230Z,102256.31
2023-04-18T20:17:31.005Z,102250.25
2023-04-18T20:20:57.216Z,102243.34
2023-04-18T20:24:22.495Z,102260.69
2023-04-18T20:27:46.885Z,102265.00
2023-04-18T20:31:11.210Z,102265.91
2023-04-18T20:34:35.076Z,102265.88
2023-04-18T20:38:03.478Z,102257.25
2023-04-18T20:41:28.233Z,102265.06
2023-04-18T20:44:52.078Z,102272.88
2023-04-18T20:48:16.322Z,102275.50
2023-04-18T20:51:40.617Z,102279.81
2023-04-18T20:55:06.509Z,102279.84
2023-04-18T20:58:31.551Z,102286.78
2023-04-18T21:01:59.620Z,102285.06
2023-04-18T21:05:24.532Z,102285.06
2023-04-18T21:08:49.772Z,102285.06
2023-04-18T21:12:17.228Z,102271.25
2023-04-18T21:15:43.736Z,102280.75
2023-04-18T21:19:08.222Z,102278.16
2023-04-18T21:22:33.476Z,102291.16
2023-04-18T21:25:58.474Z,102283.38
2023-04-18T21:29:24.216Z,102293.75
2023-04-18T21:32:50.269Z,102291.16
2023-04-18T21:36:15.137Z,102279.03
2023-04-18T21:39:40.346Z,102285.06
2023-04-18T21:43:05.476Z,102298.94
2023-04-18T21:46:30.891Z,102289.41
2023-04-18T21:49:56.529Z,102302.38
2023-04-18T21:53:21.405Z,102293.72
2023-04-18T21:56:46.321Z,102274.66
2023-04-18T22:00:12.223Z,102310.16
2023-04-18T22:03:39.977Z,102313.56
2023-04-18T22:07:04.223Z,102313.56
2023-04-18T22:10:29.006Z,102304.88
2023-04-18T22:13:55.469Z,102308.31
2023-04-18T22:17:19.586Z,102316.94
2023-04-18T22:20:47.819Z,102303.97
2023-04-18T22:24:13.397Z,102317.78
2023-04-18T22:27:37.832Z,102311.69
2023-04-18T22:31:01.266Z,102309.06
2023-04-18T22:34:25.600Z,102306.44
2023-04-18T22:37:51.731Z,102302.09
2023-04-18T22:41:15.254Z,102320.25
2023-04-18T22:44:39.491Z,102315.94
2023-04-18T22:48:03.955Z,102319.38
2023-04-18T22:51:29.403Z,102308.97
2023-04-18T22:54:56.068Z,102314.13
2023-04-18T22:58:23.214Z,102307.19
2023-04-18T23:01:47.834Z,102311.53
2023-04-18T23:05:12.826Z,102300.28
2023-04-18T23:08:37.211Z,102296.84
2023-04-18T23:12:02.942Z,102275.19
2023-04-18T23:15:28.158Z,102277.81
2023-04-18T23:18:53.165Z,102301.13
2023-04-18T23:22:17.645Z,102302.81
2023-04-18T23:25:41.550Z,102282.03
2023-04-18T23:29:10.163Z,102290.69
2023-04-18T23:32:34.220Z,102270.78
2023-04-18T23:35:59.262Z,102282.81
2023-04-18T23:39:23.221Z,102278.47
2023-04-18T23:42:48.165Z,102279.31
2023-04-18T23:46:14.477Z,102275.00
2023-04-18T23:49:38.742Z,102286.22
2023-04-18T23:53:03.352Z,102276.66
2023-04-18T23:56:27.166Z,102274.94
2023-04-18T23:59:51.520Z,102274.03
